KMDD

Midland Airpark

Midland, Texas, USA
METAR KMDD 210515Z AUTO 11005KT 10SM 28/18 A3014 RMK AO2 T02830175
Observed Flight Rules
Aug-21 @ 05:15 UTC (9 hours ago)
Wind Visibility
110° at 5 knots 10 miles
Temperatures Readings
Current 28°C / 82°F
Dewpoint 18°C / 64°F
Humidity 55%
Altimeter 30.14" Hg
Pressure 1021 hPa
Elevation 854
METAR KMDD 210515Z AUTO 11005KT 10SM 28/18 A3014 RMK AO2 T02830175
Observed Flight Rules
Aug-21 @ 05:15 UTC
(9 hours ago)
Wind Visibility
110° at 5 knots 10 miles
Temperature Dewpoint
28°C / 82°F 18°C / 64°F
Humidity Altimeter Pressure
55% 30.14" Hg 1021 hPa